»·PEaware :: N427LJ KOAK-KSAC

N427LJ :: KOAK-KSAC

FLIGHT INFORMATION

Flight Status: Arrived
Operator: Privately registered:
United States
More flights under this callsign
Pilot: Anonymous 27948 (27948)
Aircraft: CESSNA 172 SKYHAWK
(C172)
More flights by this aircraft type
Origin: KOAK Metro Oakland Intl
United States
Destination: KSAC Sacramento Executive
United States
More flights between these airports :: More routes between these airports
Route: SALAD5 ALTAM V334 SAC
File this flight plan on PilotEdge
Remarks:
Altitude:
(Current/Filed)
5,000ft
Speed:
(Current/Filed)
120kts
Departed: 23-May-20 12:55 PM
Arrived: 23-May-20 01:32 PM
Distance/Time
Traveled:
59nm/0:37
Distance/Time
To Go:
Arrived

Flight Plot

Page will automatically refresh every two minutes.

Flight plan parsing failed; only flown route is shown


Map Options




Map Legend


Flown Route
Filed Route
Departure Airport
Arrival Airport
Navaid (VOR, NDB)
Fix

Horizontal Profiles

Position Reports

Time Latitude Longitude Heading Altitude Ground
Speed
23-May-20 12:32 37.728600 -122.211550 215 7ft 0kts
23-May-20 12:34 37.728600 -122.211550 215 7ft 0kts
23-May-20 12:35 37.728600 -122.211550 215 7ft 0kts
23-May-20 12:35 37.728600 -122.211550 215 7ft 0kts
23-May-20 12:36 37.728600 -122.211550 215 7ft 0kts
23-May-20 12:38 37.728600 -122.211550 215 7ft 0kts
23-May-20 12:38 37.728600 -122.211550 215 7ft 0kts
23-May-20 12:39 37.728600 -122.211550 215 7ft 0kts
23-May-20 12:40 37.728600 -122.211550 215 7ft 0kts
23-May-20 12:41 37.728600 -122.211550 215 7ft 0kts
23-May-20 12:42 37.728600 -122.211550 215 7ft 0kts
23-May-20 12:43 37.728600 -122.211550 215 7ft 0kts
23-May-20 12:44 37.728600 -122.211550 215 7ft 0kts
23-May-20 12:45 37.728600 -122.211550 215 7ft 0kts
23-May-20 12:46 37.728600 -122.211550 215 7ft 0kts
23-May-20 12:47 37.728600 -122.211550 215 7ft 0kts
23-May-20 12:48 37.728509 -122.211624 209 7ft 4kts
23-May-20 12:49 37.727439 -122.209523 113 7ft 14kts
23-May-20 12:50 37.725584 -122.204520 164 7ft 11kts
23-May-20 12:51 37.723336 -122.205581 202 7ft 0kts
23-May-20 12:52 37.723336 -122.205581 202 7ft 0kts
23-May-20 12:53 37.723336 -122.205581 202 7ft 0kts
23-May-20 12:54 37.723556 -122.209942 291 7ft 70kts
23-May-20 12:55 37.734009 -122.214802 119 1023ft 78kts
23-May-20 12:56 37.731843 -122.188695 76 2035ft 81kts
23-May-20 12:57 37.737222 -122.160267 76 2979ft 84kts
23-May-20 12:58 37.742568 -122.131302 76 3877ft 85kts
23-May-20 12:59 37.747969 -122.101927 76 4717ft 86kts
23-May-20 13:00 37.754470 -122.066257 77 4956ft 122kts
23-May-20 13:01 37.762221 -122.023827 76 4954ft 125kts
23-May-20 13:02 37.770128 -121.980676 76 4954ft 126kts
23-May-20 13:03 37.777980 -121.937494 76 4954ft 126kts
23-May-20 13:04 37.785797 -121.894156 77 4954ft 126kts
23-May-20 13:05 37.793485 -121.851439 77 5009ft 124kts
23-May-20 13:06 37.801221 -121.808341 77 5009ft 126kts
23-May-20 13:07 37.808984 -121.765003 77 5009ft 126kts
23-May-20 13:08 37.835713 -121.740445 15 5009ft 126kts
23-May-20 13:09 37.869632 -121.729482 13 5009ft 126kts
23-May-20 13:10 37.903712 -121.718989 13 5009ft 126kts
23-May-20 13:11 37.937767 -121.708507 13 5009ft 126kts
23-May-20 13:12 37.971943 -121.697981 13 5009ft 126kts
23-May-20 13:13 38.006026 -121.687481 13 5009ft 126kts
23-May-20 13:14 38.040022 -121.676992 13 5009ft 126kts
23-May-20 13:15 38.074180 -121.666430 13 5009ft 126kts
23-May-20 13:16 38.108280 -121.655891 13 5009ft 126kts
23-May-20 13:17 38.142403 -121.645339 13 5009ft 126kts
23-May-20 13:18 38.176498 -121.634784 13 5009ft 126kts
23-May-20 13:19 38.210560 -121.624227 13 5009ft 126kts
23-May-20 13:20 38.244664 -121.613645 13 5009ft 126kts
23-May-20 13:21 38.278627 -121.603097 13 5009ft 126kts
23-May-20 13:22 38.312785 -121.592478 13 5009ft 126kts
23-May-20 13:23 38.345963 -121.582108 13 4575ft 116kts
23-May-20 13:24 38.376527 -121.572571 13 3570ft 112kts
23-May-20 13:25 38.406540 -121.563214 13 2571ft 111kts
23-May-20 13:26 38.435743 -121.554124 13 2007ft 99kts
23-May-20 13:27 38.459064 -121.536172 56 1806ft 102kts
23-May-20 13:28 38.474401 -121.506295 49 761ft 90kts
23-May-20 13:29 38.494277 -121.490781 16 427ft 78kts
23-May-20 13:30 38.512808 -121.487586 309 23ft 75kts
23-May-20 13:31 38.516193 -121.493316 216 23ft 2kts
23-May-20 13:32 38.514133 -121.494990 210 20ft 3kts
23-May-20 13:33 38.513750 -121.497222 208 20ft 0kts

Navigation Log

Ident Type
Flight plan parsing failed, navigation log unavailable